sensor_id;sensor_type;location;lat;lon;timestamp;pressure;altitude;pressure_sealevel;temperature;humidity
54854;BME280;40747;49.480;8.658;2022-10-13T00:01:49;100875.91;;;12.59;100.00
54854;BME280;40747;49.480;8.658;2022-10-13T00:04:14;100866.31;;;12.56;100.00
54854;BME280;40747;49.480;8.658;2022-10-13T00:06:40;100865.47;;;12.54;100.00
54854;BME280;40747;49.480;8.658;2022-10-13T00:09:05;100867.16;;;12.57;100.00
54854;BME280;40747;49.480;8.658;2022-10-13T00:11:30;100863.78;;;12.52;100.00
54854;BME280;40747;49.480;8.658;2022-10-13T00:13:58;100871.63;;;12.55;100.00
54854;BME280;40747;49.480;8.658;2022-10-13T00:16:24;100865.47;;;12.54;100.00
54854;BME280;40747;49.480;8.658;2022-10-13T00:18:50;100873.41;;;12.54;100.00
54854;BME280;40747;49.480;8.658;2022-10-13T00:21:18;100873.41;;;12.54;100.00
54854;BME280;40747;49.480;8.658;2022-10-13T00:23:44;100871.69;;;12.53;100.00
54854;BME280;40747;49.480;8.658;2022-10-13T00:26:13;100866.41;;;12.53;100.00
54854;BME280;40747;49.480;8.658;2022-10-13T00:28:39;100864.78;;;12.48;100.00
54854;BME280;40747;49.480;8.658;2022-10-13T00:31:28;100866.47;;;12.50;100.00
54854;BME280;40747;49.480;8.658;2022-10-13T00:33:54;100860.59;;;12.40;100.00
54854;BME280;40747;49.480;8.658;2022-10-13T00:36:21;100860.88;;;12.31;100.00
54854;BME280;40747;49.480;8.658;2022-10-13T00:38:47;100864.69;;;12.21;100.00
54854;BME280;40747;49.480;8.658;2022-10-13T00:41:12;100863.56;;;12.29;100.00
54854;BME280;40747;49.480;8.658;2022-10-13T00:43:54;100853.84;;;12.32;100.00
54854;BME280;40747;49.480;8.658;2022-10-13T00:46:22;100860.31;;;12.20;100.00
54854;BME280;40747;49.480;8.658;2022-10-13T00:48:49;100849.06;;;12.13;100.00
54854;BME280;40747;49.480;8.658;2022-10-13T00:51:17;100856.25;;;12.08;100.00
54854;BME280;40747;49.480;8.658;2022-10-13T00:53:45;100854.19;;;11.86;100.00
54854;BME280;40747;49.480;8.658;2022-10-13T00:56:12;100854.34;;;11.80;100.00
54854;BME280;40747;49.480;8.658;2022-10-13T00:58:39;100852.44;;;11.85;100.00
54854;BME280;40747;49.480;8.658;2022-10-13T01:01:05;100852.50;;;11.84;100.00
54854;BME280;40747;49.480;8.658;2022-10-13T01:03:31;100849.16;;;11.77;100.00
54854;BME280;40747;49.480;8.658;2022-10-13T01:05:59;100843.41;;;11.61;100.00
54854;BME280;40747;49.480;8.658;2022-10-13T01:08:26;100836.66;;;11.51;100.00
54854;BME280;40747;49.480;8.658;2022-10-13T01:13:47;100836.66;;;11.51;100.00
54854;BME280;40747;49.480;8.658;2022-10-13T01:16:33;100841.25;;;11.44;100.00
54854;BME280;40747;49.480;8.658;2022-10-13T01:19:18;100825.31;;;11.47;100.00
54854;BME280;40747;49.480;8.658;2022-10-13T01:22:06;100839.22;;;11.54;100.00
54854;BME280;40747;49.480;8.658;2022-10-13T01:24:45;100834.06;;;11.49;100.00
54854;BME280;40747;49.480;8.658;2022-10-13T01:30:10;100843.97;;;11.05;100.00
54854;BME280;40747;49.480;8.658;2022-10-13T01:38:25;100847.50;;;11.40;100.00
54854;BME280;40747;49.480;8.658;2022-10-13T01:41:01;100855.09;;;11.52;100.00
54854;BME280;40747;49.480;8.658;2022-10-13T01:43:41;100847.91;;;11.59;100.00
54854;BME280;40747;49.480;8.658;2022-10-13T01:46:13;100853.03;;;11.63;100.00
54854;BME280;40747;49.480;8.658;2022-10-13T01:48:41;100852.63;;;11.46;100.00
54854;BME280;40747;49.480;8.658;2022-10-13T01:51:12;100853.31;;;11.18;100.00
54854;BME280;40747;49.480;8.658;2022-10-13T01:53:38;100852.47;;;11.16;100.00
54854;BME280;40747;49.480;8.658;2022-10-13T01:56:04;100851.34;;;11.26;100.00
54854;BME280;40747;49.480;8.658;2022-10-13T01:58:32;100846.50;;;11.44;100.00
54854;BME280;40747;49.480;8.658;2022-10-13T02:07:11;100856.09;;;11.81;100.00
54854;BME280;40747;49.480;8.658;2022-10-13T02:09:50;100862.16;;;11.85;100.00
54854;BME280;40747;49.480;8.658;2022-10-13T02:12:26;100853.22;;;11.89;100.00
54854;BME280;40747;49.480;8.658;2022-10-13T02:14:56;100854.22;;;11.85;100.00
54854;BME280;40747;49.480;8.658;2022-10-13T02:17:22;100857.66;;;11.88;100.00
54854;BME280;40747;49.480;8.658;2022-10-13T02:19:51;100858.72;;;11.81;100.00
54854;BME280;40747;49.480;8.658;2022-10-13T02:22:18;100847.38;;;11.77;100.00
54854;BME280;40747;49.480;8.658;2022-10-13T02:24:44;100853.41;;;11.83;100.00
54854;BME280;40747;49.480;8.658;2022-10-13T02:27:10;100849.13;;;11.78;100.00
54854;BME280;40747;49.480;8.658;2022-10-13T02:29:51;100837.94;;;11.69;100.00
54854;BME280;40747;49.480;8.658;2022-10-13T02:32:16;100848.00;;;11.54;100.00
54854;BME280;40747;49.480;8.658;2022-10-13T02:34:42;100837.25;;;11.62;100.00
54854;BME280;40747;49.480;8.658;2022-10-13T02:37:07;100842.53;;;11.62;100.00
54854;BME280;40747;49.480;8.658;2022-10-13T02:39:33;100833.13;;;11.52;100.00
54854;BME280;40747;49.480;8.658;2022-10-13T02:41:58;100832.25;;;11.51;100.00
54854;BME280;40747;49.480;8.658;2022-10-13T02:44:23;100836.63;;;11.52;100.00
54854;BME280;40747;49.480;8.658;2022-10-13T02:46:49;100835.69;;;11.55;100.00
54854;BME280;40747;49.480;8.658;2022-10-13T02:49:14;100832.06;;;11.59;100.00
54854;BME280;40747;49.480;8.658;2022-10-13T02:51:40;100837.38;;;11.57;100.00
54854;BME280;40747;49.480;8.658;2022-10-13T02:54:05;100826.84;;;11.57;100.00
54854;BME280;40747;49.480;8.658;2022-10-13T02:56:31;100824.16;;;11.59;100.00
54854;BME280;40747;49.480;8.658;2022-10-13T02:58:56;100825.09;;;11.56;100.00
54854;BME280;40747;49.480;8.658;2022-10-13T03:01:21;100818.97;;;11.54;100.00
54854;BME280;40747;49.480;8.658;2022-10-13T03:03:47;100821.63;;;11.54;100.00
54854;BME280;40747;49.480;8.658;2022-10-13T03:06:12;100817.25;;;11.53;100.00
54854;BME280;40747;49.480;8.658;2022-10-13T03:08:37;100810.31;;;11.49;100.00
54854;BME280;40747;49.480;8.658;2022-10-13T03:11:02;100806.19;;;11.39;100.00
54854;BME280;40747;49.480;8.658;2022-10-13T03:13:28;100814.75;;;11.47;100.00
54854;BME280;40747;49.480;8.658;2022-10-13T03:15:53;100819.28;;;11.42;100.00
54854;BME280;40747;49.480;8.658;2022-10-13T03:18:19;100818.34;;;11.46;100.00
54854;BME280;40747;49.480;8.658;2022-10-13T03:20:44;100816.53;;;11.46;100.00
54854;BME280;40747;49.480;8.658;2022-10-13T03:23:09;100820.81;;;11.51;100.00
54854;BME280;40747;49.480;8.658;2022-10-13T03:25:35;100809.44;;;11.50;100.00
54854;BME280;40747;49.480;8.658;2022-10-13T03:28:00;100809.38;;;11.52;100.00
54854;BME280;40747;49.480;8.658;2022-10-13T03:30:26;100811.13;;;11.53;100.00
54854;BME280;40747;49.480;8.658;2022-10-13T03:32:51;100818.88;;;11.59;100.00
54854;BME280;40747;49.480;8.658;2022-10-13T03:35:17;100808.53;;;11.51;100.00
54854;BME280;40747;49.480;8.658;2022-10-13T03:37:42;100805.00;;;11.51;100.00
54854;BME280;40747;49.480;8.658;2022-10-13T03:40:08;100801.63;;;11.45;100.00
54854;BME280;40747;49.480;8.658;2022-10-13T03:42:37;100800.59;;;11.51;100.00
54854;BME280;40747;49.480;8.658;2022-10-13T03:45:03;100807.63;;;11.52;100.00
54854;BME280;40747;49.480;8.658;2022-10-13T03:47:29;100805.94;;;11.50;100.00
54854;BME280;40747;49.480;8.658;2022-10-13T03:49:55;100806.75;;;11.52;100.00
54854;BME280;40747;49.480;8.658;2022-10-13T03:52:21;100804.00;;;11.56;100.00
54854;BME280;40747;49.480;8.658;2022-10-13T03:54:47;100788.56;;;11.41;100.00
54854;BME280;40747;49.480;8.658;2022-10-13T03:57:12;100802.34;;;11.52;100.00
54854;BME280;40747;49.480;8.658;2022-10-13T03:59:42;100792.84;;;11.45;100.00
54854;BME280;40747;49.480;8.658;2022-10-13T04:02:07;100803.16;;;11.54;100.00
54854;BME280;40747;49.480;8.658;2022-10-13T04:04:33;100806.69;;;11.53;100.00
54854;BME280;40747;49.480;8.658;2022-10-13T04:06:59;100812.13;;;11.47;100.00
54854;BME280;40747;49.480;8.658;2022-10-13T04:09:25;100805.06;;;11.49;100.00
54854;BME280;40747;49.480;8.658;2022-10-13T04:11:50;100808.47;;;11.53;100.00
54854;BME280;40747;49.480;8.658;2022-10-13T04:14:17;100813.75;;;11.53;100.00
54854;BME280;40747;49.480;8.658;2022-10-13T04:16:42;100822.56;;;11.52;100.00
54854;BME280;40747;49.480;8.658;2022-10-13T04:19:10;100812.84;;;11.54;100.00
54854;BME280;40747;49.480;8.658;2022-10-13T04:21:36;100811.06;;;11.54;100.00
54854;BME280;40747;49.480;8.658;2022-10-13T04:24:03;100814.59;;;11.53;100.00
54854;BME280;40747;49.480;8.658;2022-10-13T04:26:31;100813.75;;;11.53;100.00
54854;BME280;40747;49.480;8.658;2022-10-13T04:28:57;100811.84;;;11.58;100.00
54854;BME280;40747;49.480;8.658;2022-10-13T04:31:23;100810.84;;;11.62;100.00
54854;BME280;40747;49.480;8.658;2022-10-13T04:33:49;100808.16;;;11.65;100.00
54854;BME280;40747;49.480;8.658;2022-10-13T04:36:16;100807.25;;;11.64;100.00
54854;BME280;40747;49.480;8.658;2022-10-13T04:38:42;100808.25;;;11.60;100.00
54854;BME280;40747;49.480;8.658;2022-10-13T04:41:09;100813.44;;;11.63;100.00
54854;BME280;40747;49.480;8.658;2022-10-13T04:43:35;100816.09;;;11.63;100.00
54854;BME280;40747;49.480;8.658;2022-10-13T04:46:02;100813.38;;;11.67;100.00
54854;BME280;40747;49.480;8.658;2022-10-13T04:48:28;100812.38;;;11.71;100.00
54854;BME280;40747;49.480;8.658;2022-10-13T04:51:10;100812.44;;;11.69;100.00
54854;BME280;40747;49.480;8.658;2022-10-13T04:53:36;100811.47;;;11.72;100.00
54854;BME280;40747;49.480;8.658;2022-10-13T04:56:04;100808.91;;;11.69;100.00
54854;BME280;40747;49.480;8.658;2022-10-13T04:58:30;100803.00;;;11.60;100.00
54854;BME280;40747;49.480;8.658;2022-10-13T05:00:56;100809.91;;;11.64;100.00
54854;BME280;40747;49.480;8.658;2022-10-13T05:03:22;100813.44;;;11.63;100.00
54854;BME280;40747;49.480;8.658;2022-10-13T05:05:48;100806.53;;;11.59;100.00
54854;BME280;40747;49.480;8.658;2022-10-13T05:08:13;100806.78;;;11.50;100.00
54854;BME280;40747;49.480;8.658;2022-10-13T05:10:38;100805.75;;;11.56;100.00
54854;BME280;40747;49.480;8.658;2022-10-13T05:13:04;100803.03;;;11.59;100.00
54854;BME280;40747;49.480;8.658;2022-10-13T05:15:29;100800.34;;;11.60;100.00
54854;BME280;40747;49.480;8.658;2022-10-13T05:17:54;100801.25;;;11.59;100.00
54854;BME280;40747;49.480;8.658;2022-10-13T05:20:20;100778.41;;;11.58;100.00
54854;BME280;40747;49.480;8.658;2022-10-13T05:22:45;100775.69;;;11.61;100.00
54854;BME280;40747;49.480;8.658;2022-10-13T05:25:13;100763.91;;;11.42;100.00
54854;BME280;40747;49.480;8.658;2022-10-13T05:27:39;100765.75;;;11.40;100.00
54854;BME280;40747;49.480;8.658;2022-10-13T05:30:05;100764.75;;;11.44;100.00
54854;BME280;40747;49.480;8.658;2022-10-13T05:32:30;100760.53;;;11.37;100.00
54854;BME280;40747;49.480;8.658;2022-10-13T05:34:56;100755.09;;;11.43;100.00
54854;BME280;40747;49.480;8.658;2022-10-13T05:37:21;100747.28;;;11.40;100.00
54854;BME280;40747;49.480;8.658;2022-10-13T05:39:47;100740.25;;;11.39;100.00
54854;BME280;40747;49.480;8.658;2022-10-13T05:42:12;100746.03;;;11.20;100.00
54854;BME280;40747;49.480;8.658;2022-10-13T05:44:38;100752.72;;;11.34;100.00
54854;BME280;40747;49.480;8.658;2022-10-13T05:47:03;100764.69;;;11.45;100.00
54854;BME280;40747;49.480;8.658;2022-10-13T05:49:28;100762.00;;;11.47;100.00
54854;BME280;40747;49.480;8.658;2022-10-13T05:51:56;100759.56;;;11.41;100.00
54854;BME280;40747;49.480;8.658;2022-10-13T05:54:25;100752.22;;;11.19;100.00
54854;BME280;40747;49.480;8.658;2022-10-13T05:56:58;100741.69;;;11.19;100.00
54854;BME280;40747;49.480;8.658;2022-10-13T05:59:26;100746.94;;;11.19;100.00
54854;BME280;40747;49.480;8.658;2022-10-13T06:01:53;100739.84;;;11.21;100.00
54854;BME280;40747;49.480;8.658;2022-10-13T06:04:22;100744.16;;;11.24;100.00
54854;BME280;40747;49.480;8.658;2022-10-13T06:06:48;100738.66;;;11.33;100.00
54854;BME280;40747;49.480;8.658;2022-10-13T06:09:14;100727.19;;;11.34;100.00
54854;BME280;40747;49.480;8.658;2022-10-13T06:11:46;100743.94;;;11.33;100.00
54854;BME280;40747;49.480;8.658;2022-10-13T06:14:11;100742.03;;;11.38;100.00
54854;BME280;40747;49.480;8.658;2022-10-13T06:16:37;100731.91;;;11.23;100.00
54854;BME280;40747;49.480;8.658;2022-10-13T06:19:03;100744.91;;;11.30;100.00
54854;BME280;40747;49.480;8.658;2022-10-13T06:21:28;100745.63;;;11.36;100.00
54854;BME280;40747;49.480;8.658;2022-10-13T06:23:53;100744.47;;;11.46;100.00
54854;BME280;40747;49.480;8.658;2022-10-13T06:26:19;100745.22;;;11.51;100.00
54854;BME280;40747;49.480;8.658;2022-10-13T06:28:44;100741.53;;;11.57;100.00
54854;BME280;40747;49.480;8.658;2022-10-13T06:31:09;100740.50;;;11.62;100.00
54854;BME280;40747;49.480;8.658;2022-10-13T06:33:35;100747.53;;;11.62;100.00
54854;BME280;40747;49.480;8.658;2022-10-13T06:36:04;100744.53;;;11.10;100.00
54854;BME280;40747;49.480;8.658;2022-10-13T06:38:31;100746.53;;;11.35;100.00
54854;BME280;40747;49.480;8.658;2022-10-13T06:41:01;100752.16;;;11.54;100.00
54854;BME280;40747;49.480;8.658;2022-10-13T06:43:27;100762.00;;;11.47;100.00
54854;BME280;40747;49.480;8.658;2022-10-13T06:45:56;100760.50;;;11.38;100.00
54854;BME280;40747;49.480;8.658;2022-10-13T06:48:22;100752.88;;;11.27;100.00
54854;BME280;40747;49.480;8.658;2022-10-13T06:50:47;100754.56;;;11.30;100.00
54854;BME280;40747;49.480;8.658;2022-10-13T06:53:13;100755.06;;;11.10;100.00
54854;BME280;40747;49.480;8.658;2022-10-13T06:55:38;100760.38;;;10.74;100.00
54854;BME280;40747;49.480;8.658;2022-10-13T06:58:06;100762.13;;;11.09;100.00
54854;BME280;40747;49.480;8.658;2022-10-13T07:00:31;100777.34;;;11.32;100.00
54854;BME280;40747;49.480;8.658;2022-10-13T07:02:56;100782.28;;;11.12;100.00
54854;BME280;40747;49.480;8.658;2022-10-13T07:05:22;100781.53;;;11.07;100.00
54854;BME280;40747;49.480;8.658;2022-10-13T07:07:47;100777.53;;;10.90;100.00
54854;BME280;40747;49.480;8.658;2022-10-13T07:10:15;100786.06;;;11.02;100.00
54854;BME280;40747;49.480;8.658;2022-10-13T07:12:40;100783.31;;;11.05;100.00
54854;BME280;40747;49.480;8.658;2022-10-13T07:15:06;100792.22;;;11.01;100.00
54854;BME280;40747;49.480;8.658;2022-10-13T07:17:32;100785.91;;;11.08;100.00
54854;BME280;40747;49.480;8.658;2022-10-13T07:19:57;100778.22;;;11.33;100.00
54854;BME280;40747;49.480;8.658;2022-10-13T07:22:22;100777.56;;;11.58;100.00
54854;BME280;40747;49.480;8.658;2022-10-13T07:24:48;100760.44;;;11.73;100.00
54854;BME280;40747;49.480;8.658;2022-10-13T07:27:13;100752.13;;;11.87;100.00
54854;BME280;40747;49.480;8.658;2022-10-13T07:29:38;100731.00;;;11.87;100.00
54854;BME280;40747;49.480;8.658;2022-10-13T07:32:04;100732.88;;;12.13;100.00
54854;BME280;40747;49.480;8.658;2022-10-13T07:34:30;100726.50;;;12.20;100.00
54854;BME280;40747;49.480;8.658;2022-10-13T07:36:55;100727.66;;;12.40;100.00
54854;BME280;40747;49.480;8.658;2022-10-13T07:39:20;100733.03;;;12.37;100.00
54854;BME280;40747;49.480;8.658;2022-10-13T07:41:46;100732.63;;;12.49;100.00
54854;BME280;40747;49.480;8.658;2022-10-13T07:44:11;100742.75;;;12.63;100.00
54854;BME280;40747;49.480;8.658;2022-10-13T07:46:36;100752.94;;;12.75;100.00
54854;BME280;40747;49.480;8.658;2022-10-13T07:49:02;100751.91;;;12.79;100.00
54854;BME280;40747;49.480;8.658;2022-10-13T07:51:27;100753.66;;;12.81;100.00
54854;BME280;40747;49.480;8.658;2022-10-13T07:53:53;100749.44;;;12.75;100.00
54854;BME280;40747;49.480;8.658;2022-10-13T07:56:18;100744.16;;;12.75;100.00
54854;BME280;40747;49.480;8.658;2022-10-13T07:58:45;100739.53;;;12.82;100.00
54854;BME280;40747;49.480;8.658;2022-10-13T08:01:13;100726.91;;;12.90;100.00
54854;BME280;40747;49.480;8.658;2022-10-13T08:03:39;100709.72;;;13.03;100.00
54854;BME280;40747;49.480;8.658;2022-10-13T08:06:05;100703.81;;;13.20;100.00
54854;BME280;40747;49.480;8.658;2022-10-13T08:08:31;100712.34;;;13.28;100.00
54854;BME280;40747;49.480;8.658;2022-10-13T08:11:04;100714.78;;;13.35;100.00
54854;BME280;40747;49.480;8.658;2022-10-13T08:13:31;100715.81;;;13.56;100.00
54854;BME280;40747;49.480;8.658;2022-10-13T08:15:59;100712.81;;;13.65;100.00
54854;BME280;40747;49.480;8.658;2022-10-13T08:18:24;100714.78;;;13.84;100.00
54854;BME280;40747;49.480;8.658;2022-10-13T08:20:50;100713.28;;;14.00;100.00
54854;BME280;40747;49.480;8.658;2022-10-13T08:23:15;100718.75;;;14.18;100.00
54854;BME280;40747;49.480;8.658;2022-10-13T08:25:42;100727.69;;;14.15;100.00
54854;BME280;40747;49.480;8.658;2022-10-13T08:28:22;100739.03;;;14.19;100.00
54854;BME280;40747;49.480;8.658;2022-10-13T08:30:48;100719.19;;;14.07;100.00
54854;BME280;40747;49.480;8.658;2022-10-13T08:33:14;100735.16;;;14.28;100.00
54854;BME280;40747;49.480;8.658;2022-10-13T08:35:40;100744.88;;;14.27;100.00
54854;BME280;40747;49.480;8.658;2022-10-13T08:38:07;100744.84;;;14.29;100.00
54854;BME280;40747;49.480;8.658;2022-10-13T08:40:32;100743.94;;;14.52;100.00
54854;BME280;40747;49.480;8.658;2022-10-13T08:42:57;100733.53;;;14.69;100.00
54854;BME280;40747;49.480;8.658;2022-10-13T08:45:28;100726.78;;;14.83;100.00
54854;BME280;40747;49.480;8.658;2022-10-13T08:47:58;100734.81;;;14.81;100.00
54854;BME280;40747;49.480;8.658;2022-10-13T08:50:28;100741.09;;;14.79;100.00
54854;BME280;40747;49.480;8.658;2022-10-13T08:53:08;100740.78;;;14.86;100.00
54854;BME280;40747;49.480;8.658;2022-10-13T08:55:42;100743.53;;;14.83;100.00
54854;BME280;40747;49.480;8.658;2022-10-13T08:58:15;100742.69;;;14.61;100.00
54854;BME280;40747;49.480;8.658;2022-10-13T09:00:42;100742.06;;;14.54;100.00
54854;BME280;40747;49.480;8.658;2022-10-13T09:03:26;100751.69;;;14.56;100.00
54854;BME280;40747;49.480;8.658;2022-10-13T09:06:29;100759.59;;;14.58;100.00
54854;BME280;40747;49.480;8.658;2022-10-13T09:09:03;100750.06;;;14.52;100.00
54854;BME280;40747;49.480;8.658;2022-10-13T09:11:35;100758.41;;;14.43;100.00
54854;BME280;40747;49.480;8.658;2022-10-13T09:14:04;100765.50;;;14.42;100.00
54854;BME280;40747;49.480;8.658;2022-10-13T09:16:38;100767.97;;;14.47;100.00
54854;BME280;40747;49.480;8.658;2022-10-13T09:19:19;100775.13;;;14.45;100.00
54854;BME280;40747;49.480;8.658;2022-10-13T09:21:45;100768.69;;;14.29;100.00
54854;BME280;40747;49.480;8.658;2022-10-13T09:24:14;100773.88;;;14.32;100.00
54854;BME280;40747;49.480;8.658;2022-10-13T09:26:41;100760.41;;;14.14;100.00
54854;BME280;40747;49.480;8.658;2022-10-13T09:29:17;100757.28;;;14.26;100.00
54854;BME280;40747;49.480;8.658;2022-10-13T09:31:42;100744.34;;;14.41;100.00
54854;BME280;40747;49.480;8.658;2022-10-13T09:34:14;100751.06;;;14.50;100.00
54854;BME280;40747;49.480;8.658;2022-10-13T09:36:54;100758.16;;;14.49;100.00
54854;BME280;40747;49.480;8.658;2022-10-13T09:39:20;100747.84;;;14.64;100.00
54854;BME280;40747;49.480;8.658;2022-10-13T09:41:46;100743.41;;;14.66;100.00
54854;BME280;40747;49.480;8.658;2022-10-13T09:44:26;100755.06;;;14.38;100.00
54854;BME280;40747;49.480;8.658;2022-10-13T09:46:58;100747.75;;;14.45;100.00
54854;BME280;40747;49.480;8.658;2022-10-13T09:49:32;100733.25;;;14.53;100.00
54854;BME280;40747;49.480;8.658;2022-10-13T09:52:05;100727.44;;;14.67;100.00
54854;BME280;40747;49.480;8.658;2022-10-13T09:54:45;100734.91;;;14.78;100.00
54854;BME280;40747;49.480;8.658;2022-10-13T10:00:26;100711.59;;;14.66;100.00
54854;BME280;40747;49.480;8.658;2022-10-13T10:05:49;100721.72;;;14.54;100.00
54854;BME280;40747;49.480;8.658;2022-10-13T10:11:23;100727.28;;;14.70;100.00
54854;BME280;40747;49.480;8.658;2022-10-13T10:13:51;100730.16;;;14.66;100.00
54854;BME280;40747;49.480;8.658;2022-10-13T10:16:35;100730.22;;;14.63;100.00
54854;BME280;40747;49.480;8.658;2022-10-13T10:21:47;100728.34;;;14.44;100.00
54854;BME280;40747;49.480;8.658;2022-10-13T10:24:25;100727.59;;;14.40;100.00
54854;BME280;40747;49.480;8.658;2022-10-13T10:27:00;100727.41;;;14.45;100.00
54854;BME280;40747;49.480;8.658;2022-10-13T10:34:49;100711.66;;;14.63;100.00
54854;BME280;40747;49.480;8.658;2022-10-13T10:45:37;100703.31;;;14.94;100.00
54854;BME280;40747;49.480;8.658;2022-10-13T10:48:16;100704.78;;;15.01;100.00
54854;BME280;40747;49.480;8.658;2022-10-13T10:50:44;100694.56;;;15.13;100.00
54854;BME280;40747;49.480;8.658;2022-10-13T10:55:54;100694.56;;;15.33;100.00
54854;BME280;40747;49.480;8.658;2022-10-13T10:58:37;100690.56;;;15.44;100.00
54854;BME280;40747;49.480;8.658;2022-10-13T11:01:17;100679.13;;;15.42;100.00
54854;BME280;40747;49.480;8.658;2022-10-13T11:06:35;100672.47;;;15.52;100.00
54854;BME280;40747;49.480;8.658;2022-10-13T11:09:03;100678.97;;;15.65;99.83
54854;BME280;40747;49.480;8.658;2022-10-13T11:11:30;100670.56;;;15.75;99.17
54854;BME280;40747;49.480;8.658;2022-10-13T11:16:57;100660.72;;;15.57;100.00
54854;BME280;40747;49.480;8.658;2022-10-13T11:19:30;100660.41;;;15.64;100.00
54854;BME280;40747;49.480;8.658;2022-10-13T11:37:26;100608.69;;;15.72;99.76
54854;BME280;40747;49.480;8.658;2022-10-13T11:40:19;100608.56;;;15.76;100.00
54854;BME280;40747;49.480;8.658;2022-10-13T11:43:08;100600.41;;;15.79;100.00
54854;BME280;40747;49.480;8.658;2022-10-13T11:45:47;100598.56;;;16.00;100.00
54854;BME280;40747;49.480;8.658;2022-10-13T11:51:29;100582.09;;;16.11;100.00
54854;BME280;40747;49.480;8.658;2022-10-13T11:54:09;100583.84;;;16.29;99.34
54854;BME280;40747;49.480;8.658;2022-10-13T11:56:49;100582.66;;;16.35;95.67
54854;BME280;40747;49.480;8.658;2022-10-13T12:01:44;100566.84;;;16.49;94.90
54854;BME280;40747;49.480;8.658;2022-10-13T12:04:14;100570.91;;;16.57;94.90
54854;BME280;40747;49.480;8.658;2022-10-13T12:06:40;100566.13;;;16.63;95.75
54854;BME280;40747;49.480;8.658;2022-10-13T12:09:17;100578.91;;;16.57;96.09
54854;BME280;40747;49.480;8.658;2022-10-13T12:11:43;100568.88;;;16.62;94.53
54854;BME280;40747;49.480;8.658;2022-10-13T12:14:26;100571.31;;;16.66;95.71
54854;BME280;40747;49.480;8.658;2022-10-13T12:16:54;100577.09;;;16.57;94.50
54854;BME280;40747;49.480;8.658;2022-10-13T12:19:23;100581.47;;;16.76;94.09
54854;BME280;40747;49.480;8.658;2022-10-13T12:21:50;100584.19;;;16.92;94.51
54854;BME280;40747;49.480;8.658;2022-10-13T12:24:16;100573.50;;;16.93;93.89
54854;BME280;40747;49.480;8.658;2022-10-13T12:26:41;100571.75;;;16.92;94.79
54854;BME280;40747;49.480;8.658;2022-10-13T12:29:14;100574.78;;;16.84;94.75
54854;BME280;40747;49.480;8.658;2022-10-13T12:31:45;100566.03;;;16.82;93.64
54854;BME280;40747;49.480;8.658;2022-10-13T12:34:26;100562.97;;;16.73;93.81
54854;BME280;40747;49.480;8.658;2022-10-13T12:36:58;100556.03;;;16.70;94.46
54854;BME280;40747;49.480;8.658;2022-10-13T12:39:27;100547.09;;;16.71;95.56
54854;BME280;40747;49.480;8.658;2022-10-13T12:41:54;100550.78;;;16.68;95.73
54854;BME280;40747;49.480;8.658;2022-10-13T12:44:22;100550.25;;;16.62;95.61
54854;BME280;40747;49.480;8.658;2022-10-13T12:46:51;100553.84;;;16.43;96.36
54854;BME280;40747;49.480;8.658;2022-10-13T12:49:23;100552.84;;;16.46;96.37
54854;BME280;40747;49.480;8.658;2022-10-13T12:51:51;100540.25;;;16.49;96.20
54854;BME280;40747;49.480;8.658;2022-10-13T12:54:24;100553.72;;;16.46;96.13
54854;BME280;40747;49.480;8.658;2022-10-13T12:56:51;100549.97;;;16.50;96.23
54854;BME280;40747;49.480;8.658;2022-10-13T12:59:19;100539.19;;;16.53;96.94
54854;BME280;40747;49.480;8.658;2022-10-13T13:01:52;100545.16;;;16.57;97.40
54854;BME280;40747;49.480;8.658;2022-10-13T13:07:01;100551.16;;;16.45;96.67
54854;BME280;40747;49.480;8.658;2022-10-13T13:09:33;100546.28;;;16.35;96.91
54854;BME280;40747;49.480;8.658;2022-10-13T13:14:40;100532.28;;;16.49;96.89
54854;BME280;40747;49.480;8.658;2022-10-13T13:17:19;100540.13;;;16.52;97.02
54854;BME280;40747;49.480;8.658;2022-10-13T13:19:58;100547.91;;;16.55;96.58
54854;BME280;40747;49.480;8.658;2022-10-13T13:22:24;100546.66;;;16.63;96.79
54854;BME280;40747;49.480;8.658;2022-10-13T13:24:50;100543.50;;;16.72;96.10
54854;BME280;40747;49.480;8.658;2022-10-13T13:27:25;100552.06;;;16.61;96.17
54854;BME280;40747;49.480;8.658;2022-10-13T13:29:52;100541.03;;;16.69;96.33
54854;BME280;40747;49.480;8.658;2022-10-13T13:32:19;100543.44;;;16.74;96.19
54854;BME280;40747;49.480;8.658;2022-10-13T13:34:45;100524.47;;;16.64;96.57
54854;BME280;40747;49.480;8.658;2022-10-13T13:37:27;100539.31;;;16.68;96.78
54854;BME280;40747;49.480;8.658;2022-10-13T13:39:54;100533.56;;;16.76;95.32
54854;BME280;40747;49.480;8.658;2022-10-13T13:42:19;100538.81;;;16.95;94.83
54854;BME280;40747;49.480;8.658;2022-10-13T13:44:44;100535.81;;;16.83;96.26
54854;BME280;40747;49.480;8.658;2022-10-13T13:47:21;100538.19;;;16.72;96.72
54854;BME280;40747;49.480;8.658;2022-10-13T13:49:48;100521.75;;;16.81;96.98
54854;BME280;40747;49.480;8.658;2022-10-13T13:52:13;100514.47;;;16.85;96.24
54854;BME280;40747;49.480;8.658;2022-10-13T13:54:39;100509.81;;;17.06;94.35
54854;BME280;40747;49.480;8.658;2022-10-13T13:57:04;100495.22;;;17.13;95.82
54854;BME280;40747;49.480;8.658;2022-10-13T13:59:29;100492.22;;;17.19;93.61
54854;BME280;40747;49.480;8.658;2022-10-13T14:01:55;100477.88;;;17.38;92.53
54854;BME280;40747;49.480;8.658;2022-10-13T14:04:20;100483.38;;;17.35;91.97
54854;BME280;40747;49.480;8.658;2022-10-13T14:06:45;100492.63;;;17.44;93.86
54854;BME280;40747;49.480;8.658;2022-10-13T14:09:10;100497.81;;;17.47;94.07